sensor_id;sensor_type;location;lat;lon;timestamp;temperature;humidity
4374;DHT22;2201;51.100;6.814;2022-12-24T00:00:33;11.10;98.20
4374;DHT22;2201;51.100;6.814;2022-12-24T00:03:00;11.10;98.20
4374;DHT22;2201;51.100;6.814;2022-12-24T00:05:26;11.10;98.20
4374;DHT22;2201;51.100;6.814;2022-12-24T00:07:53;11.00;98.20
4374;DHT22;2201;51.100;6.814;2022-12-24T00:10:22;11.00;98.20
4374;DHT22;2201;51.100;6.814;2022-12-24T00:12:48;11.00;98.20
4374;DHT22;2201;51.100;6.814;2022-12-24T00:15:15;10.90;98.20
4374;DHT22;2201;51.100;6.814;2022-12-24T00:17:42;10.80;98.20
4374;DHT22;2201;51.100;6.814;2022-12-24T00:20:09;10.80;98.20
4374;DHT22;2201;51.100;6.814;2022-12-24T00:22:36;10.80;98.20
4374;DHT22;2201;51.100;6.814;2022-12-24T00:25:03;10.70;98.20
4374;DHT22;2201;51.100;6.814;2022-12-24T00:27:32;10.70;98.20
4374;DHT22;2201;51.100;6.814;2022-12-24T00:29:59;10.70;98.20
4374;DHT22;2201;51.100;6.814;2022-12-24T00:32:25;10.70;98.20
4374;DHT22;2201;51.100;6.814;2022-12-24T00:34:52;10.70;98.20
4374;DHT22;2201;51.100;6.814;2022-12-24T00:37:19;10.60;98.20
4374;DHT22;2201;51.100;6.814;2022-12-24T00:39:46;10.60;98.20
4374;DHT22;2201;51.100;6.814;2022-12-24T00:42:13;10.60;98.20
4374;DHT22;2201;51.100;6.814;2022-12-24T00:44:41;10.60;98.20
4374;DHT22;2201;51.100;6.814;2022-12-24T00:47:08;10.60;98.20
4374;DHT22;2201;51.100;6.814;2022-12-24T00:49:36;10.70;98.20
4374;DHT22;2201;51.100;6.814;2022-12-24T00:52:03;10.70;98.20
4374;DHT22;2201;51.100;6.814;2022-12-24T00:54:30;10.70;98.20
4374;DHT22;2201;51.100;6.814;2022-12-24T00:56:56;10.70;98.20
4374;DHT22;2201;51.100;6.814;2022-12-24T00:59:23;10.70;98.20
4374;DHT22;2201;51.100;6.814;2022-12-24T01:01:51;10.70;98.20
4374;DHT22;2201;51.100;6.814;2022-12-24T01:04:18;10.70;98.20
4374;DHT22;2201;51.100;6.814;2022-12-24T01:07:02;10.70;98.20
4374;DHT22;2201;51.100;6.814;2022-12-24T01:09:29;10.60;98.20
4374;DHT22;2201;51.100;6.814;2022-12-24T01:11:56;10.70;98.20
4374;DHT22;2201;51.100;6.814;2022-12-24T01:14:23;10.70;98.20
4374;DHT22;2201;51.100;6.814;2022-12-24T01:16:51;10.70;98.20
4374;DHT22;2201;51.100;6.814;2022-12-24T01:19:18;10.70;98.20
4374;DHT22;2201;51.100;6.814;2022-12-24T01:21:45;10.70;98.20
4374;DHT22;2201;51.100;6.814;2022-12-24T01:24:13;10.70;98.20
4374;DHT22;2201;51.100;6.814;2022-12-24T01:26:40;10.70;98.20
4374;DHT22;2201;51.100;6.814;2022-12-24T01:29:07;10.70;98.20
4374;DHT22;2201;51.100;6.814;2022-12-24T01:31:34;10.60;98.20
4374;DHT22;2201;51.100;6.814;2022-12-24T01:34:02;10.60;98.20
4374;DHT22;2201;51.100;6.814;2022-12-24T01:36:29;10.60;98.20
4374;DHT22;2201;51.100;6.814;2022-12-24T01:38:56;10.50;98.20
4374;DHT22;2201;51.100;6.814;2022-12-24T01:41:23;10.50;98.20
4374;DHT22;2201;51.100;6.814;2022-12-24T01:44:23;10.50;98.20
4374;DHT22;2201;51.100;6.814;2022-12-24T01:46:53;10.50;98.20
4374;DHT22;2201;51.100;6.814;2022-12-24T01:49:23;10.40;98.20
4374;DHT22;2201;51.100;6.814;2022-12-24T01:51:55;10.40;98.20
4374;DHT22;2201;51.100;6.814;2022-12-24T01:54:27;10.40;98.20
4374;DHT22;2201;51.100;6.814;2022-12-24T01:56:59;10.30;98.20
4374;DHT22;2201;51.100;6.814;2022-12-24T01:59:28;10.30;98.20
4374;DHT22;2201;51.100;6.814;2022-12-24T02:01:55;10.30;98.20
4374;DHT22;2201;51.100;6.814;2022-12-24T02:04:32;10.30;98.20
4374;DHT22;2201;51.100;6.814;2022-12-24T02:07:00;10.30;98.20
4374;DHT22;2201;51.100;6.814;2022-12-24T02:09:27;10.30;98.20
4374;DHT22;2201;51.100;6.814;2022-12-24T02:11:54;10.20;98.20
4374;DHT22;2201;51.100;6.814;2022-12-24T02:14:22;10.20;98.20
4374;DHT22;2201;51.100;6.814;2022-12-24T02:16:55;10.20;98.20
4374;DHT22;2201;51.100;6.814;2022-12-24T02:19:59;10.20;98.20
4374;DHT22;2201;51.100;6.814;2022-12-24T02:22:40;10.20;98.20
4374;DHT22;2201;51.100;6.814;2022-12-24T02:25:26;10.20;98.20
4374;DHT22;2201;51.100;6.814;2022-12-24T02:28:03;10.10;98.20
4374;DHT22;2201;51.100;6.814;2022-12-24T02:30:40;10.10;98.20
4374;DHT22;2201;51.100;6.814;2022-12-24T02:33:17;10.10;98.20
4374;DHT22;2201;51.100;6.814;2022-12-24T02:35:50;10.10;98.20
4374;DHT22;2201;51.100;6.814;2022-12-24T02:38:25;10.10;98.20
4374;DHT22;2201;51.100;6.814;2022-12-24T02:40:57;10.10;98.20
4374;DHT22;2201;51.100;6.814;2022-12-24T02:43:28;10.10;98.20
4374;DHT22;2201;51.100;6.814;2022-12-24T02:46:02;10.10;98.20
4374;DHT22;2201;51.100;6.814;2022-12-24T02:48:31;10.00;98.20
4374;DHT22;2201;51.100;6.814;2022-12-24T02:51:02;10.10;98.20
4374;DHT22;2201;51.100;6.814;2022-12-24T02:53:30;10.10;98.20
4374;DHT22;2201;51.100;6.814;2022-12-24T02:56:23;10.10;98.20
4374;DHT22;2201;51.100;6.814;2022-12-24T02:59:08;10.10;98.20
4374;DHT22;2201;51.100;6.814;2022-12-24T03:01:46;10.20;98.20
4374;DHT22;2201;51.100;6.814;2022-12-24T03:04:21;10.30;98.20
4374;DHT22;2201;51.100;6.814;2022-12-24T03:07:11;10.30;98.20
4374;DHT22;2201;51.100;6.814;2022-12-24T03:09:49;10.30;98.20
4374;DHT22;2201;51.100;6.814;2022-12-24T03:12:20;10.30;98.20
4374;DHT22;2201;51.100;6.814;2022-12-24T03:14:49;10.40;98.20
4374;DHT22;2201;51.100;6.814;2022-12-24T03:17:18;10.40;98.20
4374;DHT22;2201;51.100;6.814;2022-12-24T03:19:46;10.50;98.20
4374;DHT22;2201;51.100;6.814;2022-12-24T03:22:15;10.50;98.20
4374;DHT22;2201;51.100;6.814;2022-12-24T03:24:42;10.50;98.20
4374;DHT22;2201;51.100;6.814;2022-12-24T03:27:10;10.50;98.20
4374;DHT22;2201;51.100;6.814;2022-12-24T03:29:39;10.50;98.20
4374;DHT22;2201;51.100;6.814;2022-12-24T03:32:07;10.60;98.20
4374;DHT22;2201;51.100;6.814;2022-12-24T03:34:36;10.60;98.20
4374;DHT22;2201;51.100;6.814;2022-12-24T03:37:11;10.60;98.20
4374;DHT22;2201;51.100;6.814;2022-12-24T03:39:46;10.60;98.20
4374;DHT22;2201;51.100;6.814;2022-12-24T03:42:13;10.60;98.20
4374;DHT22;2201;51.100;6.814;2022-12-24T03:44:40;10.60;98.20
4374;DHT22;2201;51.100;6.814;2022-12-24T03:47:07;10.60;98.20
4374;DHT22;2201;51.100;6.814;2022-12-24T03:49:36;10.60;98.20
4374;DHT22;2201;51.100;6.814;2022-12-24T03:52:03;10.60;98.20
4374;DHT22;2201;51.100;6.814;2022-12-24T03:54:30;10.50;98.20
4374;DHT22;2201;51.100;6.814;2022-12-24T03:56:57;10.50;98.20
4374;DHT22;2201;51.100;6.814;2022-12-24T03:59:24;10.50;98.20
4374;DHT22;2201;51.100;6.814;2022-12-24T04:01:52;10.50;98.20
4374;DHT22;2201;51.100;6.814;2022-12-24T04:04:19;10.50;98.20
4374;DHT22;2201;51.100;6.814;2022-12-24T04:06:48;10.50;98.20
4374;DHT22;2201;51.100;6.814;2022-12-24T04:09:14;10.50;98.20
4374;DHT22;2201;51.100;6.814;2022-12-24T04:11:41;10.50;98.20
4374;DHT22;2201;51.100;6.814;2022-12-24T04:14:08;10.50;98.20
4374;DHT22;2201;51.100;6.814;2022-12-24T04:16:35;10.50;98.20
4374;DHT22;2201;51.100;6.814;2022-12-24T04:19:01;10.50;98.20
4374;DHT22;2201;51.100;6.814;2022-12-24T04:21:28;10.50;98.20
4374;DHT22;2201;51.100;6.814;2022-12-24T04:24:02;10.50;98.20
4374;DHT22;2201;51.100;6.814;2022-12-24T04:26:29;10.50;98.20
4374;DHT22;2201;51.100;6.814;2022-12-24T04:28:56;10.50;98.20
4374;DHT22;2201;51.100;6.814;2022-12-24T04:31:23;10.50;98.20
4374;DHT22;2201;51.100;6.814;2022-12-24T04:33:51;10.50;98.20
4374;DHT22;2201;51.100;6.814;2022-12-24T04:36:19;10.50;98.20
4374;DHT22;2201;51.100;6.814;2022-12-24T04:38:47;10.50;98.20
4374;DHT22;2201;51.100;6.814;2022-12-24T04:41:17;10.50;98.20
4374;DHT22;2201;51.100;6.814;2022-12-24T04:43:44;10.50;98.20
4374;DHT22;2201;51.100;6.814;2022-12-24T04:46:14;10.50;98.20
4374;DHT22;2201;51.100;6.814;2022-12-24T04:48:43;10.50;98.20
4374;DHT22;2201;51.100;6.814;2022-12-24T04:51:10;10.50;98.20
4374;DHT22;2201;51.100;6.814;2022-12-24T04:53:38;10.50;98.20
4374;DHT22;2201;51.100;6.814;2022-12-24T04:56:08;10.50;98.20
4374;DHT22;2201;51.100;6.814;2022-12-24T04:58:37;10.50;98.20
4374;DHT22;2201;51.100;6.814;2022-12-24T05:01:05;10.50;98.20
4374;DHT22;2201;51.100;6.814;2022-12-24T05:03:32;10.40;98.20
4374;DHT22;2201;51.100;6.814;2022-12-24T05:06:02;10.40;98.20
4374;DHT22;2201;51.100;6.814;2022-12-24T05:08:29;10.40;98.20
4374;DHT22;2201;51.100;6.814;2022-12-24T05:10:57;10.30;98.20
4374;DHT22;2201;51.100;6.814;2022-12-24T05:13:24;10.30;98.20
4374;DHT22;2201;51.100;6.814;2022-12-24T05:15:52;10.30;98.20
4374;DHT22;2201;51.100;6.814;2022-12-24T05:18:20;10.30;98.20
4374;DHT22;2201;51.100;6.814;2022-12-24T05:20:48;10.30;98.20
4374;DHT22;2201;51.100;6.814;2022-12-24T05:23:20;10.30;98.20
4374;DHT22;2201;51.100;6.814;2022-12-24T05:26:12;10.30;98.20
4374;DHT22;2201;51.100;6.814;2022-12-24T05:28:50;10.30;98.20
4374;DHT22;2201;51.100;6.814;2022-12-24T05:31:19;10.30;98.20
4374;DHT22;2201;51.100;6.814;2022-12-24T05:33:46;10.30;98.20
4374;DHT22;2201;51.100;6.814;2022-12-24T05:36:13;10.40;98.20
4374;DHT22;2201;51.100;6.814;2022-12-24T05:38:40;10.40;98.20
4374;DHT22;2201;51.100;6.814;2022-12-24T05:41:07;10.40;98.20
4374;DHT22;2201;51.100;6.814;2022-12-24T05:43:35;10.40;98.20
4374;DHT22;2201;51.100;6.814;2022-12-24T05:46:04;10.40;98.20
4374;DHT22;2201;51.100;6.814;2022-12-24T05:48:32;10.40;98.20
4374;DHT22;2201;51.100;6.814;2022-12-24T05:51:02;10.40;98.20
4374;DHT22;2201;51.100;6.814;2022-12-24T05:53:29;10.50;98.20
4374;DHT22;2201;51.100;6.814;2022-12-24T05:56:02;10.50;98.20
4374;DHT22;2201;51.100;6.814;2022-12-24T05:58:29;10.50;98.20
4374;DHT22;2201;51.100;6.814;2022-12-24T06:00:55;10.50;98.20
4374;DHT22;2201;51.100;6.814;2022-12-24T06:03:22;10.50;98.20
4374;DHT22;2201;51.100;6.814;2022-12-24T06:05:58;10.50;98.20
4374;DHT22;2201;51.100;6.814;2022-12-24T06:08:25;10.50;98.20
4374;DHT22;2201;51.100;6.814;2022-12-24T06:10:54;10.50;98.20
4374;DHT22;2201;51.100;6.814;2022-12-24T06:13:22;10.50;98.20
4374;DHT22;2201;51.100;6.814;2022-12-24T06:15:49;10.50;98.20
4374;DHT22;2201;51.100;6.814;2022-12-24T06:18:16;10.60;98.20
4374;DHT22;2201;51.100;6.814;2022-12-24T06:20:42;10.60;98.20
4374;DHT22;2201;51.100;6.814;2022-12-24T06:23:11;10.50;98.20
4374;DHT22;2201;51.100;6.814;2022-12-24T06:25:38;10.60;98.20
4374;DHT22;2201;51.100;6.814;2022-12-24T06:28:04;10.50;98.20
4374;DHT22;2201;51.100;6.814;2022-12-24T06:30:31;10.50;98.20
4374;DHT22;2201;51.100;6.814;2022-12-24T06:32:58;10.50;98.20
4374;DHT22;2201;51.100;6.814;2022-12-24T06:35:25;10.50;98.20
4374;DHT22;2201;51.100;6.814;2022-12-24T06:37:52;10.50;98.20
4374;DHT22;2201;51.100;6.814;2022-12-24T06:40:20;10.40;98.20
4374;DHT22;2201;51.100;6.814;2022-12-24T06:42:47;10.40;98.20
4374;DHT22;2201;51.100;6.814;2022-12-24T06:45:13;10.30;98.20
4374;DHT22;2201;51.100;6.814;2022-12-24T06:47:40;10.30;98.20
4374;DHT22;2201;51.100;6.814;2022-12-24T06:50:07;10.30;98.20
4374;DHT22;2201;51.100;6.814;2022-12-24T06:52:34;10.30;98.20
4374;DHT22;2201;51.100;6.814;2022-12-24T06:55:01;10.30;98.20
4374;DHT22;2201;51.100;6.814;2022-12-24T06:57:29;10.30;98.20
4374;DHT22;2201;51.100;6.814;2022-12-24T06:59:57;10.30;98.20
4374;DHT22;2201;51.100;6.814;2022-12-24T07:02:24;10.40;98.20
4374;DHT22;2201;51.100;6.814;2022-12-24T07:04:51;10.40;98.20
4374;DHT22;2201;51.100;6.814;2022-12-24T07:07:18;10.50;98.20
4374;DHT22;2201;51.100;6.814;2022-12-24T07:09:44;10.50;98.20
4374;DHT22;2201;51.100;6.814;2022-12-24T07:12:11;10.50;98.20
4374;DHT22;2201;51.100;6.814;2022-12-24T07:14:39;10.50;98.20
4374;DHT22;2201;51.100;6.814;2022-12-24T07:17:06;10.50;98.20
4374;DHT22;2201;51.100;6.814;2022-12-24T07:19:33;10.50;98.20
4374;DHT22;2201;51.100;6.814;2022-12-24T07:22:00;10.60;98.20
4374;DHT22;2201;51.100;6.814;2022-12-24T07:24:28;10.60;98.20
4374;DHT22;2201;51.100;6.814;2022-12-24T07:26:55;10.50;98.20
4374;DHT22;2201;51.100;6.814;2022-12-24T07:29:22;10.50;98.20
4374;DHT22;2201;51.100;6.814;2022-12-24T07:31:50;10.50;98.20
4374;DHT22;2201;51.100;6.814;2022-12-24T07:34:17;10.50;98.20
4374;DHT22;2201;51.100;6.814;2022-12-24T07:36:43;10.50;98.20
4374;DHT22;2201;51.100;6.814;2022-12-24T07:39:10;10.40;98.20
4374;DHT22;2201;51.100;6.814;2022-12-24T07:41:37;10.40;98.20
4374;DHT22;2201;51.100;6.814;2022-12-24T07:44:04;10.40;98.20
4374;DHT22;2201;51.100;6.814;2022-12-24T07:46:31;10.40;98.20
4374;DHT22;2201;51.100;6.814;2022-12-24T07:48:59;10.30;98.20
4374;DHT22;2201;51.100;6.814;2022-12-24T07:51:25;10.30;98.20
4374;DHT22;2201;51.100;6.814;2022-12-24T07:53:52;10.30;98.20
4374;DHT22;2201;51.100;6.814;2022-12-24T07:56:19;10.30;98.20
4374;DHT22;2201;51.100;6.814;2022-12-24T07:58:45;10.30;98.20
4374;DHT22;2201;51.100;6.814;2022-12-24T08:01:12;10.30;98.20
4374;DHT22;2201;51.100;6.814;2022-12-24T08:03:39;10.30;98.20
4374;DHT22;2201;51.100;6.814;2022-12-24T08:06:07;10.30;98.20
4374;DHT22;2201;51.100;6.814;2022-12-24T08:08:35;10.40;98.20
4374;DHT22;2201;51.100;6.814;2022-12-24T08:11:05;10.40;98.20
4374;DHT22;2201;51.100;6.814;2022-12-24T08:13:32;10.40;98.20
4374;DHT22;2201;51.100;6.814;2022-12-24T08:15:59;10.40;98.20
4374;DHT22;2201;51.100;6.814;2022-12-24T08:18:26;10.40;98.20
4374;DHT22;2201;51.100;6.814;2022-12-24T08:20:53;10.40;98.20
4374;DHT22;2201;51.100;6.814;2022-12-24T08:23:21;10.50;98.20
4374;DHT22;2201;51.100;6.814;2022-12-24T08:25:48;10.50;98.20
4374;DHT22;2201;51.100;6.814;2022-12-24T08:28:16;10.50;98.20
4374;DHT22;2201;51.100;6.814;2022-12-24T08:30:44;10.50;98.20
4374;DHT22;2201;51.100;6.814;2022-12-24T08:33:11;10.50;98.20
4374;DHT22;2201;51.100;6.814;2022-12-24T08:35:37;10.60;98.20
4374;DHT22;2201;51.100;6.814;2022-12-24T08:38:04;10.60;98.20
4374;DHT22;2201;51.100;6.814;2022-12-24T08:40:32;10.60;98.20
4374;DHT22;2201;51.100;6.814;2022-12-24T08:43:00;10.70;98.20
4374;DHT22;2201;51.100;6.814;2022-12-24T08:45:28;10.70;98.20
4374;DHT22;2201;51.100;6.814;2022-12-24T08:47:54;10.70;98.20
4374;DHT22;2201;51.100;6.814;2022-12-24T08:50:21;10.70;98.20
4374;DHT22;2201;51.100;6.814;2022-12-24T08:52:48;10.70;98.20
4374;DHT22;2201;51.100;6.814;2022-12-24T08:55:14;10.70;98.20
4374;DHT22;2201;51.100;6.814;2022-12-24T08:57:43;10.80;98.20
4374;DHT22;2201;51.100;6.814;2022-12-24T09:00:11;10.80;98.20
4374;DHT22;2201;51.100;6.814;2022-12-24T09:02:38;10.80;98.20
4374;DHT22;2201;51.100;6.814;2022-12-24T09:05:06;10.80;98.20
4374;DHT22;2201;51.100;6.814;2022-12-24T09:07:33;10.70;98.20
4374;DHT22;2201;51.100;6.814;2022-12-24T09:09:59;10.80;98.20
4374;DHT22;2201;51.100;6.814;2022-12-24T09:12:26;10.70;98.20
4374;DHT22;2201;51.100;6.814;2022-12-24T09:14:54;10.80;98.20
4374;DHT22;2201;51.100;6.814;2022-12-24T09:17:21;10.80;98.20
4374;DHT22;2201;51.100;6.814;2022-12-24T09:19:48;10.80;98.20
4374;DHT22;2201;51.100;6.814;2022-12-24T09:22:15;10.80;98.20
4374;DHT22;2201;51.100;6.814;2022-12-24T09:24:42;10.80;98.20
4374;DHT22;2201;51.100;6.814;2022-12-24T09:27:09;10.80;98.20
4374;DHT22;2201;51.100;6.814;2022-12-24T09:29:36;10.80;98.20
4374;DHT22;2201;51.100;6.814;2022-12-24T09:32:06;10.80;98.20
4374;DHT22;2201;51.100;6.814;2022-12-24T09:34:33;10.90;98.20
4374;DHT22;2201;51.100;6.814;2022-12-24T09:37:00;10.90;98.20
4374;DHT22;2201;51.100;6.814;2022-12-24T09:39:27;10.90;98.20
4374;DHT22;2201;51.100;6.814;2022-12-24T09:41:59;10.90;98.20
4374;DHT22;2201;51.100;6.814;2022-12-24T09:44:39;10.90;98.20
4374;DHT22;2201;51.100;6.814;2022-12-24T09:47:17;10.90;98.20
4374;DHT22;2201;51.100;6.814;2022-12-24T09:49:50;10.90;98.20
4374;DHT22;2201;51.100;6.814;2022-12-24T09:52:26;10.90;98.20
4374;DHT22;2201;51.100;6.814;2022-12-24T09:55:00;10.90;98.20
4374;DHT22;2201;51.100;6.814;2022-12-24T09:57:33;10.90;98.20
4374;DHT22;2201;51.100;6.814;2022-12-24T10:00:02;11.00;98.20
4374;DHT22;2201;51.100;6.814;2022-12-24T10:02:31;11.00;98.20
4374;DHT22;2201;51.100;6.814;2022-12-24T10:04:58;11.00;98.20
4374;DHT22;2201;51.100;6.814;2022-12-24T10:07:32;11.10;98.20
4374;DHT22;2201;51.100;6.814;2022-12-24T10:10:11;11.10;98.20
4374;DHT22;2201;51.100;6.814;2022-12-24T10:12:44;11.10;98.20
4374;DHT22;2201;51.100;6.814;2022-12-24T10:15:17;11.20;98.20
4374;DHT22;2201;51.100;6.814;2022-12-24T10:17:58;11.20;98.20
4374;DHT22;2201;51.100;6.814;2022-12-24T10:23:36;11.30;98.20
4374;DHT22;2201;51.100;6.814;2022-12-24T10:26:10;11.40;98.20
4374;DHT22;2201;51.100;6.814;2022-12-24T10:28:43;11.40;98.20
4374;DHT22;2201;51.100;6.814;2022-12-24T10:31:11;11.40;98.20
4374;DHT22;2201;51.100;6.814;2022-12-24T10:33:42;11.50;98.20
4374;DHT22;2201;51.100;6.814;2022-12-24T10:36:15;11.50;98.20
4374;DHT22;2201;51.100;6.814;2022-12-24T10:38:44;11.50;98.20
4374;DHT22;2201;51.100;6.814;2022-12-24T10:41:13;11.50;98.20
4374;DHT22;2201;51.100;6.814;2022-12-24T10:43:43;11.50;98.20
4374;DHT22;2201;51.100;6.814;2022-12-24T10:46:16;11.50;98.20
4374;DHT22;2201;51.100;6.814;2022-12-24T10:48:51;11.60;98.20
4374;DHT22;2201;51.100;6.814;2022-12-24T10:51:22;11.60;98.20
4374;DHT22;2201;51.100;6.814;2022-12-24T10:53:55;11.60;98.20
4374;DHT22;2201;51.100;6.814;2022-12-24T10:56:24;11.60;98.20
4374;DHT22;2201;51.100;6.814;2022-12-24T10:58:52;11.60;98.20
4374;DHT22;2201;51.100;6.814;2022-12-24T11:01:20;11.60;98.20
4374;DHT22;2201;51.100;6.814;2022-12-24T11:04:15;11.50;98.20
4374;DHT22;2201;51.100;6.814;2022-12-24T11:06:52;11.60;98.20
4374;DHT22;2201;51.100;6.814;2022-12-24T11:09:22;11.60;98.20
4374;DHT22;2201;51.100;6.814;2022-12-24T11:11:49;11.60;98.20
4374;DHT22;2201;51.100;6.814;2022-12-24T11:14:18;11.70;98.20
4374;DHT22;2201;51.100;6.814;2022-12-24T11:16:51;11.80;98.20
4374;DHT22;2201;51.100;6.814;2022-12-24T11:19:25;11.80;98.20
4374;DHT22;2201;51.100;6.814;2022-12-24T11:22:00;11.80;98.20
4374;DHT22;2201;51.100;6.814;2022-12-24T11:24:36;11.90;98.20
4374;DHT22;2201;51.100;6.814;2022-12-24T11:27:26;11.90;98.20
4374;DHT22;2201;51.100;6.814;2022-12-24T11:30:21;11.90;98.20
4374;DHT22;2201;51.100;6.814;2022-12-24T11:35:46;12.00;98.20
4374;DHT22;2201;51.100;6.814;2022-12-24T11:38:19;12.00;98.20
4374;DHT22;2201;51.100;6.814;2022-12-24T11:40:48;12.10;98.20
4374;DHT22;2201;51.100;6.814;2022-12-24T11:43:18;12.10;98.20
4374;DHT22;2201;51.100;6.814;2022-12-24T11:45:49;12.20;98.20
4374;DHT22;2201;51.100;6.814;2022-12-24T11:48:27;12.30;98.20
4374;DHT22;2201;51.100;6.814;2022-12-24T11:50:58;12.30;98.20
4374;DHT22;2201;51.100;6.814;2022-12-24T11:53:30;12.40;98.20
4374;DHT22;2201;51.100;6.814;2022-12-24T11:56:04;12.50;98.20
4374;DHT22;2201;51.100;6.814;2022-12-24T11:58:36;12.60;98.20
4374;DHT22;2201;51.100;6.814;2022-12-24T12:01:11;12.60;98.20
4374;DHT22;2201;51.100;6.814;2022-12-24T12:03:43;12.60;98.20
4374;DHT22;2201;51.100;6.814;2022-12-24T12:06:26;12.60;98.20
4374;DHT22;2201;51.100;6.814;2022-12-24T12:09:03;12.60;98.20
4374;DHT22;2201;51.100;6.814;2022-12-24T12:11:32;12.60;98.20
4374;DHT22;2201;51.100;6.814;2022-12-24T12:14:00;12.50;98.20
4374;DHT22;2201;51.100;6.814;2022-12-24T12:16:34;12.50;98.20
4374;DHT22;2201;51.100;6.814;2022-12-24T12:19:19;12.50;98.20
4374;DHT22;2201;51.100;6.814;2022-12-24T12:21:48;12.40;98.20
4374;DHT22;2201;51.100;6.814;2022-12-24T12:24:19;12.40;98.20
4374;DHT22;2201;51.100;6.814;2022-12-24T12:26:56;12.40;98.20
4374;DHT22;2201;51.100;6.814;2022-12-24T12:29:30;12.40;98.20
4374;DHT22;2201;51.100;6.814;2022-12-24T12:32:03;12.40;98.20
4374;DHT22;2201;51.100;6.814;2022-12-24T12:34:34;12.40;98.20
4374;DHT22;2201;51.100;6.814;2022-12-24T12:37:19;12.50;98.20
4374;DHT22;2201;51.100;6.814;2022-12-24T12:39:50;12.50;98.20
4374;DHT22;2201;51.100;6.814;2022-12-24T12:42:24;12.50;98.20
4374;DHT22;2201;51.100;6.814;2022-12-24T12:45:11;12.60;98.20
4374;DHT22;2201;51.100;6.814;2022-12-24T12:48:00;12.70;98.20
4374;DHT22;2201;51.100;6.814;2022-12-24T12:50:33;12.70;98.20
4374;DHT22;2201;51.100;6.814;2022-12-24T12:53:15;12.90;98.20
4374;DHT22;2201;51.100;6.814;2022-12-24T12:55:54;13.10;98.20
4374;DHT22;2201;51.100;6.814;2022-12-24T12:58:29;13.30;98.20
4374;DHT22;2201;51.100;6.814;2022-12-24T13:01:04;13.30;98.20
4374;DHT22;2201;51.100;6.814;2022-12-24T13:03:47;13.10;98.20
4374;DHT22;2201;51.100;6.814;2022-12-24T13:06:37;13.00;98.20
4374;DHT22;2201;51.100;6.814;2022-12-24T13:12:21;12.90;98.20
4374;DHT22;2201;51.100;6.814;2022-12-24T13:15:23;12.90;98.20
4374;DHT22;2201;51.100;6.814;2022-12-24T13:18:13;12.90;98.20
4374;DHT22;2201;51.100;6.814;2022-12-24T13:20:47;12.80;98.20
4374;DHT22;2201;51.100;6.814;2022-12-24T13:23:17;12.80;98.20
4374;DHT22;2201;51.100;6.814;2022-12-24T13:25:48;12.90;98.20
4374;DHT22;2201;51.100;6.814;2022-12-24T13:28:32;12.90;98.20
4374;DHT22;2201;51.100;6.814;2022-12-24T13:31:25;12.90;98.20
4374;DHT22;2201;51.100;6.814;2022-12-24T13:33:58;12.90;98.20
4374;DHT22;2201;51.100;6.814;2022-12-24T13:40:06;12.80;98.20
4374;DHT22;2201;51.100;6.814;2022-12-24T13:42:49;12.80;98.20
4374;DHT22;2201;51.100;6.814;2022-12-24T13:45:42;12.70;98.20
4374;DHT22;2201;51.100;6.814;2022-12-24T13:48:25;12.60;98.20
4374;DHT22;2201;51.100;6.814;2022-12-24T13:50:54;12.50;98.20
4374;DHT22;2201;51.100;6.814;2022-12-24T13:53:26;12.40;98.20
4374;DHT22;2201;51.100;6.814;2022-12-24T13:55:57;12.30;98.20
4374;DHT22;2201;51.100;6.814;2022-12-24T13:58:26;12.20;98.20
4374;DHT22;2201;51.100;6.814;2022-12-24T14:00:55;12.20;98.20
4374;DHT22;2201;51.100;6.814;2022-12-24T14:03:27;12.10;98.20
4374;DHT22;2201;51.100;6.814;2022-12-24T14:05:58;12.00;98.20
4374;DHT22;2201;51.100;6.814;2022-12-24T14:08:38;12.00;98.20
4374;DHT22;2201;51.100;6.814;2022-12-24T14:11:11;12.00;98.20
4374;DHT22;2201;51.100;6.814;2022-12-24T14:14:10;12.00;98.20
4374;DHT22;2201;51.100;6.814;2022-12-24T14:16:46;12.00;98.20
4374;DHT22;2201;51.100;6.814;2022-12-24T14:19:17;12.10;98.20
4374;DHT22;2201;51.100;6.814;2022-12-24T14:21:52;12.00;98.20
4374;DHT22;2201;51.100;6.814;2022-12-24T14:24:22;12.00;98.20
4374;DHT22;2201;51.100;6.814;2022-12-24T14:26:55;12.00;98.20
4374;DHT22;2201;51.100;6.814;2022-12-24T14:29:26;12.00;98.20
4374;DHT22;2201;51.100;6.814;2022-12-24T14:31:56;11.90;98.20
4374;DHT22;2201;51.100;6.814;2022-12-24T14:34:23;11.80;98.20
4374;DHT22;2201;51.100;6.814;2022-12-24T14:36:52;11.80;98.20
4374;DHT22;2201;51.100;6.814;2022-12-24T14:39:23;11.70;98.20
4374;DHT22;2201;51.100;6.814;2022-12-24T14:42:03;11.60;98.20
4374;DHT22;2201;51.100;6.814;2022-12-24T14:44:38;11.50;98.20
4374;DHT22;2201;51.100;6.814;2022-12-24T14:47:18;11.50;98.20
4374;DHT22;2201;51.100;6.814;2022-12-24T14:50:02;11.40;98.20
4374;DHT22;2201;51.100;6.814;2022-12-24T14:52:34;11.40;98.20
4374;DHT22;2201;51.100;6.814;2022-12-24T14:55:29;11.30;98.20
4374;DHT22;2201;51.100;6.814;2022-12-24T14:58:25;11.20;98.20
4374;DHT22;2201;51.100;6.814;2022-12-24T15:00:55;11.20;98.20
4374;DHT22;2201;51.100;6.814;2022-12-24T15:03:23;11.10;98.20
4374;DHT22;2201;51.100;6.814;2022-12-24T15:05:52;11.10;98.20
4374;DHT22;2201;51.100;6.814;2022-12-24T15:08:28;11.00;98.20
4374;DHT22;2201;51.100;6.814;2022-12-24T15:10:59;10.90;98.20
4374;DHT22;2201;51.100;6.814;2022-12-24T15:13:32;10.80;98.20
4374;DHT22;2201;51.100;6.814;2022-12-24T15:16:02;10.70;98.20
4374;DHT22;2201;51.100;6.814;2022-12-24T15:18:32;10.70;98.20
4374;DHT22;2201;51.100;6.814;2022-12-24T15:21:07;10.60;98.20
4374;DHT22;2201;51.100;6.814;2022-12-24T15:23:46;10.60;98.20
4374;DHT22;2201;51.100;6.814;2022-12-24T15:26:22;10.50;98.20
4374;DHT22;2201;51.100;6.814;2022-12-24T15:28:51;10.40;98.20
4374;DHT22;2201;51.100;6.814;2022-12-24T15:31:21;10.30;98.20
4374;DHT22;2201;51.100;6.814;2022-12-24T15:33:50;10.30;98.20
4374;DHT22;2201;51.100;6.814;2022-12-24T15:36:26;10.20;98.20
4374;DHT22;2201;51.100;6.814;2022-12-24T15:39:00;10.20;98.20
4374;DHT22;2201;51.100;6.814;2022-12-24T15:41:30;10.10;98.20
4374;DHT22;2201;51.100;6.814;2022-12-24T15:44:01;10.10;98.20
4374;DHT22;2201;51.100;6.814;2022-12-24T15:46:30;10.10;98.20
4374;DHT22;2201;51.100;6.814;2022-12-24T15:48:59;10.00;98.20
4374;DHT22;2201;51.100;6.814;2022-12-24T15:51:30;10.00;98.20
4374;DHT22;2201;51.100;6.814;2022-12-24T15:54:01;9.90;98.20
4374;DHT22;2201;51.100;6.814;2022-12-24T15:56:34;9.90;98.20
4374;DHT22;2201;51.100;6.814;2022-12-24T15:59:24;9.90;98.20
4374;DHT22;2201;51.100;6.814;2022-12-24T16:01:54;9.80;98.20
4374;DHT22;2201;51.100;6.814;2022-12-24T16:04:22;9.70;98.20
4374;DHT22;2201;51.100;6.814;2022-12-24T16:06:51;9.70;98.20
4374;DHT22;2201;51.100;6.814;2022-12-24T16:09:40;9.60;98.20
4374;DHT22;2201;51.100;6.814;2022-12-24T16:12:16;9.50;98.20
4374;DHT22;2201;51.100;6.814;2022-12-24T16:14:48;9.50;98.20
4374;DHT22;2201;51.100;6.814;2022-12-24T16:17:19;9.40;98.20
4374;DHT22;2201;51.100;6.814;2022-12-24T16:19:48;9.40;98.20
4374;DHT22;2201;51.100;6.814;2022-12-24T16:22:18;9.30;98.20
4374;DHT22;2201;51.100;6.814;2022-12-24T16:25:00;9.20;98.20
4374;DHT22;2201;51.100;6.814;2022-12-24T16:27:27;9.10;98.20
4374;DHT22;2201;51.100;6.814;2022-12-24T16:29:56;9.10;98.20
4374;DHT22;2201;51.100;6.814;2022-12-24T16:32:33;9.00;98.20
4374;DHT22;2201;51.100;6.814;2022-12-24T16:35:02;9.00;98.20
4374;DHT22;2201;51.100;6.814;2022-12-24T16:37:31;8.90;98.20
4374;DHT22;2201;51.100;6.814;2022-12-24T16:39:59;8.90;98.20